Impacts METAR Board
IDs:

KJFK - New York/Kennedy Int, NY, US

Updated at: 1200 UTC 16 Sep 2019
Potential Impact None Slight Moderate High
Time 16/00Z 16/01Z 16/02Z 16/03Z 16/04Z 16/05Z 16/06Z 16/07Z 16/08Z 16/09Z 16/10Z 16/11Z 16/12Z
Temp71 71 70 70 70 69 70 70 72 70 71 71 72
Dewpt69 68 68 67 66 65 64 64 63 63 61 61 62
Altim30.09 30.08 30.08 30.07 30.07 30.07 30.06 30.06 30.05 30.05 30.07 30.07 30.08
VIS10 10 10 10 10 10 10 10 10 10 10 10 10
CIG250 250 -- -- -- -- 250 170 100 85 100 90 85
CoverBKNBKNSCTSCTSCTSCTBKNOVCBKNOVCBKNBKNBKN
FltCatVFRVFRVFRVFRVFRVFRVFRVFRVFRVFRVFRVFRVFR
WX--------------------------
WDir20021022022022024025025026025028010350
WSpd9 6 5 6 8 6 6 4 3 7 7 4 4
WGst-- -- -- -- -- -- -- -- -- -- -- -- --
Raw hourly METARs
KJFK 152351Z 20009KT 10SM SCT110 SCT200 BKN250 22/21 A3009 RMK AO2 SLP188 T02170206 10267 20217 51002
KJFK 160051Z 21006KT 10SM FEW200 BKN250 22/20 A3008 RMK AO2 SLP186 T02170200
KJFK 160151Z 22005KT 10SM FEW200 SCT250 21/20 A3008 RMK AO2 SLP185 T02110200
KJFK 160251Z 22006KT 10SM SCT250 21/19 A3007 RMK AO2 SLP183 T02110194 58005
KJFK 160351Z 22008KT 10SM SCT180 21/19 A3007 RMK AO2 SLP180 T02110189
KJFK 160451Z 24006KT 10SM FEW180 SCT250 21/18 A3007 RMK AO2 SLP181 T02060183 402720206
KJFK 160551Z 25006KT 10SM SCT170 BKN250 21/18 A3006 RMK AO2 SLP180 T02110178 10222 20206 56003
KJFK 160651Z 25004KT 10SM FEW110 BKN170 OVC250 21/18 A3006 RMK AO2 SLP178 T02110178
KJFK 160751Z 26003KT 10SM BKN100 BKN170 BKN250 22/17 A3005 RMK AO2 SLP176 T02220172
KJFK 160851Z 25007KT 10SM BKN085 OVC180 21/17 A3005 RMK AO2 SLP177 T02110172 55004
KJFK 160951Z 28007KT 10SM BKN100 BKN180 22/16 A3007 RMK AO2 SLP182 T02170161
KJFK 161051Z 01004KT 10SM BKN090 BKN180 22/16 A3007 RMK AO2 SLP181 VIRGA NE AND S T02170161
KJFK 161151Z 35004KT 10SM BKN085 BKN120 22/17 A3008 RMK AO2 SLP184 T02220167 10222 20206 51008



Page loaded:  12:50 UTC  |   05:50 AM Pacific  |   06:50 AM Mountain  |   07:50 AM Central  |   08:50 AM Eastern

 

ADVISORIES

FORECASTS

FORECASTS

OBSERVATIONS

USER TOOLS

ABOUT US